Time;durP1;ratioP1;P1;durP2;ratioP2;P2;SDS_P1;SDS_P2;PMS_P1;PMS_P2;Temp;Humidity;BMP_temperature;BMP_pressure;BME280_temperature;BME280_humidity;BME280_pressure;Samples;Min_cycle;Max_cycle;Signal;HPM_P1;HPM_P2
2021/11/22 00:01:51;;;;;;;11.30;10.20;;;;;;;10.75;70.85;98465.19;1756703;81;21168;-63
2021/11/22 00:04:18;;;;;;;11.75;10.55;;;;;;;10.77;70.93;98460.48;1757470;81;21026;-62
2021/11/22 00:06:44;;;;;;;14.68;11.70;;;;;;;10.77;71.01;98468.47;1750892;81;21137;-63
2021/11/22 00:09:11;;;;;;;11.15;9.93;;;;;;;10.84;70.81;98471.52;1758727;81;21002;-63
2021/11/22 00:11:38;;;;;;;11.80;10.58;;;;;;;10.86;70.75;98472.12;1759074;81;21443;-63
2021/11/22 00:14:06;;;;;;;13.20;11.85;;;;;;;10.88;70.60;98469.26;1754172;81;20854;-62
2021/11/22 00:16:33;;;;;;;12.63;11.33;;;;;;;10.84;70.55;98464.86;1748018;81;20931;-62
2021/11/22 00:19:02;;;;;;;12.13;11.03;;;;;;;10.75;70.68;98469.18;1755764;80;21601;-62
2021/11/22 00:21:29;;;;;;;12.05;10.93;;;;;;;10.69;70.95;98473.44;1754344;81;20936;-62
2021/11/22 00:23:57;;;;;;;11.80;10.60;;;;;;;10.67;71.15;98470.16;1749118;81;20925;-63
2021/11/22 00:26:23;;;;;;;11.35;10.32;;;;;;;10.73;71.09;98476.04;1749663;81;21094;-62
2021/11/22 00:28:51;;;;;;;11.60;10.40;;;;;;;10.70;71.13;98479.09;1755368;81;21546;-62
2021/11/22 00:31:26;;;;;;;11.88;10.78;;;;;;;10.66;71.27;98477.84;1753438;81;21577;-62
2021/11/22 00:33:55;;;;;;;12.35;11.12;;;;;;;10.67;71.46;98481.30;1749137;81;20928;-63
2021/11/22 00:36:27;;;;;;;13.00;11.00;;;;;;;10.73;71.29;98485.85;1763499;80;20951;-62
2021/11/22 00:38:54;;;;;;;11.90;10.58;;;;;;;10.68;71.25;98491.77;1751009;81;21143;-63
2021/11/22 00:41:20;;;;;;;14.83;10.80;;;;;;;10.63;71.39;98491.53;1756291;81;21127;-63
2021/11/22 00:43:47;;;;;;;12.37;11.08;;;;;;;10.61;71.53;98488.75;1761288;81;20943;-62
2021/11/22 00:46:14;;;;;;;11.88;10.63;;;;;;;10.56;71.56;98493.83;1763872;81;20987;-63
2021/11/22 00:48:40;;;;;;;11.33;9.98;;;;;;;10.54;71.77;98498.00;1757444;81;20947;-62
2021/11/22 00:51:07;;;;;;;12.98;11.75;;;;;;;10.62;71.82;98498.36;1758412;81;21140;-62
2021/11/22 00:53:35;;;;;;;11.60;10.38;;;;;;;10.64;71.77;98499.80;1701373;84;21331;-62
2021/11/22 00:56:02;;;;;;;12.07;10.78;;;;;;;10.65;71.72;98498.80;1760502;80;21485;-62
2021/11/22 00:58:29;;;;;;;12.18;10.95;;;;;;;10.70;72.02;98499.53;1769278;80;21545;-62
2021/11/22 01:00:55;;;;;;;11.80;10.60;;;;;;;10.71;71.79;98510.00;1698638;84;20991;-63
2021/11/22 01:03:23;;;;;;;12.10;10.90;;;;;;;10.77;71.55;98505.21;1730559;82;21111;-62
2021/11/22 01:05:49;;;;;;;12.25;11.12;;;;;;;10.77;71.45;98513.20;1728132;82;20943;-62
2021/11/22 01:08:18;;;;;;;11.70;10.50;;;;;;;10.80;71.45;98511.48;1725228;82;20975;-62
2021/11/22 01:10:45;;;;;;;12.35;11.25;;;;;;;10.83;71.25;98511.59;1757592;80;20994;-62
2021/11/22 01:13:13;;;;;;;11.90;10.70;;;;;;;10.77;71.27;98508.38;1764111;80;20983;-62
2021/11/22 01:15:40;;;;;;;12.37;11.18;;;;;;;10.77;71.36;98511.86;1761491;80;21145;-62
2021/11/22 01:18:08;;;;;;;12.80;10.98;;;;;;;10.74;71.70;98508.79;1761213;80;20845;-62
2021/11/22 01:20:39;;;;;;;12.37;11.18;;;;;;;10.71;71.69;98508.67;1759975;80;20947;-62
2021/11/22 01:23:12;;;;;;;13.30;12.00;;;;;;;10.75;71.66;98513.08;1770837;80;20947;-63
2021/11/22 01:25:42;;;;;;;12.63;11.33;;;;;;;10.72;71.79;98506.30;1767272;80;20976;-63
2021/11/22 01:28:11;;;;;;;12.53;11.43;;;;;;;10.67;72.06;98507.40;1761403;80;21151;-63
2021/11/22 01:30:39;;;;;;;13.28;12.07;;;;;;;10.53;73.10;98509.13;1761455;80;20943;-63
2021/11/22 01:33:05;;;;;;;12.78;11.65;;;;;;;10.47;73.26;98507.77;1767530;80;20934;-63
2021/11/22 01:35:32;;;;;;;12.85;11.65;;;;;;;10.44;73.83;98506.31;1767717;80;21030;-63
2021/11/22 01:37:58;;;;;;;13.00;11.70;;;;;;;10.37;74.10;98513.43;1765433;80;21037;-65
2021/11/22 01:40:26;;;;;;;14.93;13.32;;;;;;;10.42;74.32;98510.19;1764594;80;21158;-63
2021/11/22 01:42:55;;;;;;;15.72;13.28;;;;;;;10.44;74.99;98513.47;1762099;80;20950;-63
2021/11/22 01:45:21;;;;;;;13.35;12.05;;;;;;;10.44;75.27;98514.80;1765462;80;21844;-63
2021/11/22 01:47:48;;;;;;;14.28;12.88;;;;;;;10.46;75.92;98514.91;1768498;80;21042;-62
2021/11/22 01:50:16;;;;;;;16.12;12.33;;;;;;;10.46;76.33;98514.09;1765814;80;20995;-62
2021/11/22 01:52:43;;;;;;;15.10;12.85;;;;;;;10.42;77.13;98518.98;1753032;80;21243;-62
2021/11/22 01:55:13;;;;;;;14.85;13.18;;;;;;;10.46;77.73;98519.41;1717773;81;20878;-64
2021/11/22 01:57:43;;;;;;;13.95;12.65;;;;;;;10.45;77.36;98521.23;1725287;82;21477;-62
2021/11/22 02:00:14;;;;;;;13.98;12.68;;;;;;;10.43;77.25;98523.27;1699226;82;21042;-62
2021/11/22 02:02:41;;;;;;;14.55;13.15;;;;;;;10.47;77.32;98519.73;1715236;81;21104;-62
2021/11/22 02:05:09;;;;;;;13.88;12.47;;;;;;;10.49;77.72;98518.52;1707330;83;21239;-63
2021/11/22 02:07:37;;;;;;;14.68;13.18;;;;;;;10.51;77.72;98514.33;1714675;82;21000;-63
2021/11/22 02:10:05;;;;;;;15.45;13.88;;;;;;;10.52;77.70;98511.50;1705655;82;20994;-63
2021/11/22 02:12:33;;;;;;;14.55;13.15;;;;;;;10.45;78.05;98515.13;1719769;81;21034;-64
2021/11/22 02:14:59;;;;;;;16.60;13.38;;;;;;;10.39;78.10;98522.03;1722922;81;20986;-62
2021/11/22 02:17:27;;;;;;;14.60;13.10;;;;;;;10.40;78.73;98526.31;1704075;83;21466;-63
2021/11/22 02:20:04;;;;;;;16.80;13.55;;;;;;;10.43;78.64;98526.44;1722056;81;20985;-63
2021/11/22 02:22:31;;;;;;;19.40;13.75;;;;;;;10.46;78.64;98529.55;1719975;81;20946;-62
2021/11/22 02:24:58;;;;;;;16.57;13.78;;;;;;;10.51;79.14;98532.95;1714359;81;21425;-63
2021/11/22 02:27:25;;;;;;;15.55;13.40;;;;;;;10.50;79.31;98529.98;1718750;83;21535;-63
2021/11/22 02:29:51;;;;;;;14.68;13.03;;;;;;;10.53;78.99;98531.73;1700798;82;21057;-63
2021/11/22 02:32:17;;;;;;;15.55;13.28;;;;;;;10.54;79.02;98534.72;1710618;81;21076;-61
2021/11/22 02:34:44;;;;;;;15.88;14.28;;;;;;;10.57;79.12;98530.03;1716969;81;20977;-62
2021/11/22 02:37:11;;;;;;;16.17;14.33;;;;;;;10.60;79.38;98534.47;1714511;83;20917;-63
2021/11/22 02:39:38;;;;;;;15.90;14.18;;;;;;;10.68;79.50;98543.63;1715090;81;21507;-62
2021/11/22 02:42:13;;;;;;;15.88;14.25;;;;;;;10.75;79.13;98541.84;1704790;81;21112;-63
2021/11/22 02:44:40;;;;;;;14.83;13.15;;;;;;;10.75;78.82;98539.17;1700969;82;21045;-63
2021/11/22 02:47:07;;;;;;;15.60;13.45;;;;;;;10.76;78.97;98545.32;1711889;81;20984;-62
2021/11/22 02:49:34;;;;;;;16.37;14.70;;;;;;;10.75;78.58;98543.67;1692031;83;20988;-62
2021/11/22 02:52:00;;;;;;;15.28;13.88;;;;;;;10.72;79.53;98546.20;1707779;81;20898;-62
2021/11/22 02:54:27;;;;;;;16.77;13.78;;;;;;;10.71;80.14;98541.92;1725105;82;21230;-62
2021/11/22 02:56:53;;;;;;;15.32;13.88;;;;;;;10.60;79.99;98546.43;1700001;84;21481;-62
2021/11/22 02:59:20;;;;;;;15.80;14.20;;;;;;;10.61;80.02;98545.93;1705860;83;21051;-62
2021/11/22 03:01:46;;;;;;;15.15;13.65;;;;;;;10.66;79.60;98552.82;1695532;83;20975;-63
2021/11/22 03:04:13;;;;;;;15.95;14.35;;;;;;;10.67;79.28;98549.95;1711746;83;20947;-62
2021/11/22 03:06:39;;;;;;;17.57;13.90;;;;;;;10.60;79.55;98545.61;1698100;83;21477;-61
2021/11/22 03:09:06;;;;;;;15.43;13.93;;;;;;;10.63;79.53;98552.70;1697082;83;20987;-62
2021/11/22 03:11:33;;;;;;;15.45;13.95;;;;;;;10.54;79.38;98556.00;1696660;83;20963;-62
2021/11/22 03:14:00;;;;;;;15.38;13.50;;;;;;;10.53;79.61;98558.86;1711851;83;21438;-61
2021/11/22 03:16:29;;;;;;;14.50;13.05;;;;;;;10.52;79.97;98561.20;1703217;83;21489;-62
2021/11/22 03:18:54;;;;;;;15.13;13.72;;;;;;;10.53;80.29;98560.20;1708160;83;21343;-63
2021/11/22 03:21:21;;;;;;;15.55;14.05;;;;;;;10.49;80.68;98568.22;1695533;83;20995;-63
2021/11/22 03:23:47;;;;;;;16.02;14.43;;;;;;;10.50;80.53;98569.38;1705143;83;21058;-62
2021/11/22 03:26:14;;;;;;;15.32;13.93;;;;;;;10.57;80.22;98571.25;1696059;83;21540;-61
2021/11/22 03:28:41;;;;;;;16.52;14.87;;;;;;;10.57;79.89;98565.42;1699570;83;20900;-62
2021/11/22 03:31:07;;;;;;;15.70;14.18;;;;;;;10.57;79.82;98568.09;1694096;83;21169;-61
2021/11/22 03:33:33;;;;;;;16.02;14.33;;;;;;;10.46;80.06;98564.11;1708965;83;21477;-62
2021/11/22 03:36:00;;;;;;;16.35;14.63;;;;;;;10.43;80.25;98567.64;1706172;83;20912;-61
2021/11/22 03:38:29;;;;;;;16.30;14.63;;;;;;;10.42;80.35;98576.16;1711956;83;21172;-62
2021/11/22 03:40:56;;;;;;;15.93;14.33;;;;;;;10.42;80.32;98576.16;1689646;83;21646;-62
2021/11/22 03:43:31;;;;;;;15.68;14.18;;;;;;;10.54;79.79;98575.12;1700974;83;21806;-62
2021/11/22 03:45:55;;;;;;;14.85;13.28;;;;;;;10.54;79.74;98583.09;1705902;83;20959;-63
2021/11/22 03:48:23;;;;;;;15.38;13.88;;;;;;;10.62;79.49;98575.48;1706526;83;20986;-62
2021/11/22 03:50:49;;;;;;;13.85;12.50;;;;;;;10.65;79.37;98575.94;1705018;83;21647;-62
2021/11/22 03:53:15;;;;;;;13.70;12.30;;;;;;;10.69;79.19;98581.17;1702334;83;21061;-63
2021/11/22 03:55:42;;;;;;;14.38;12.88;;;;;;;10.76;78.96;98586.56;1704884;83;21237;-61
2021/11/22 03:58:09;;;;;;;14.13;12.75;;;;;;;10.77;78.91;98585.52;1701427;83;20892;-62
2021/11/22 04:00:36;;;;;;;13.68;12.37;;;;;;;10.81;78.68;98588.96;1754857;81;20944;-62
2021/11/22 04:03:02;;;;;;;15.10;13.70;;;;;;;10.84;78.52;98588.58;1760812;81;21513;-61
2021/11/22 04:05:29;;;;;;;14.68;13.22;;;;;;;10.88;78.32;98588.99;1750281;81;20998;-62
2021/11/22 04:07:56;;;;;;;16.77;14.60;;;;;;;10.94;78.09;98601.03;1749476;81;21150;-62
2021/11/22 04:10:23;;;;;;;16.93;14.93;;;;;;;10.95;77.96;98604.52;1751352;81;20966;-62
2021/11/22 04:12:49;;;;;;;19.10;16.48;;;;;;;10.93;77.95;98610.52;1747270;81;20868;-63
2021/11/22 04:15:16;;;;;;;22.22;17.80;;;;;;;10.94;78.23;98609.02;1693157;84;21068;-63
2021/11/22 04:17:43;;;;;;;23.05;17.82;;;;;;;10.89;78.07;98608.77;1720325;83;21478;-61
2021/11/22 04:20:11;;;;;;;25.05;19.70;;;;;;;10.97;77.83;98615.28;1708922;82;21160;-62
2021/11/22 04:22:37;;;;;;;23.45;17.20;;;;;;;10.96;77.67;98614.96;1733241;81;20890;-62
2021/11/22 04:25:05;;;;;;;21.10;18.85;;;;;;;10.95;77.60;98619.95;1757426;81;21497;-62
2021/11/22 04:27:34;;;;;;;19.42;17.37;;;;;;;10.96;77.45;98621.61;1747198;81;21070;-63
2021/11/22 04:30:01;;;;;;;20.20;17.15;;;;;;;10.95;77.42;98622.62;1746104;81;20884;-63
2021/11/22 04:32:28;;;;;;;19.65;17.23;;;;;;;10.93;77.57;98624.66;1759700;81;21205;-62
2021/11/22 04:34:55;;;;;;;20.15;17.12;;;;;;;10.95;77.59;98628.47;1753334;81;21489;-62
2021/11/22 04:37:25;;;;;;;17.80;15.90;;;;;;;10.98;77.54;98632.05;1759532;81;21022;-65
2021/11/22 04:39:49;;;;;;;19.35;16.48;;;;;;;10.98;77.54;98632.05;1746872;81;21070;-63
2021/11/22 04:42:16;;;;;;;17.12;15.30;;;;;;;11.02;77.66;98639.98;1732179;81;21012;-62
2021/11/22 04:44:42;;;;;;;16.93;15.20;;;;;;;11.01;77.92;98638.33;1695941;84;21214;-61
2021/11/22 04:47:12;;;;;;;17.15;15.23;;;;;;;11.01;77.96;98640.48;1750241;81;20965;-62
2021/11/22 04:49:38;;;;;;;19.10;17.20;;;;;;;10.94;77.87;98642.78;1753927;81;20923;-62
2021/11/22 04:52:07;;;;;;;18.73;16.42;;;;;;;10.87;78.02;98642.71;1768036;81;21011;-62
2021/11/22 04:54:38;;;;;;;18.45;16.55;;;;;;;10.90;77.95;98651.65;1745307;81;21491;-62
2021/11/22 04:57:05;;;;;;;19.62;17.50;;;;;;;10.86;78.04;98647.73;1700597;84;21160;-61
2021/11/22 04:59:32;;;;;;;19.20;17.20;;;;;;;10.90;77.90;98656.97;1700124;82;21533;-61
2021/11/22 05:01:59;;;;;;;18.45;16.55;;;;;;;10.91;77.75;98660.45;1682874;84;20905;-63
2021/11/22 05:04:26;;;;;;;19.85;17.85;;;;;;;11.02;77.59;98666.09;1745121;81;21018;-62
2021/11/22 05:06:53;;;;;;;20.97;17.27;;;;;;;11.00;77.65;98670.77;1755497;80;21044;-63
2021/11/22 05:09:20;;;;;;;17.70;15.03;;;;;;;10.96;77.45;98670.84;1751221;81;21141;-63
2021/11/22 05:11:49;;;;;;;14.85;13.38;;;;;;;10.87;77.92;98667.19;1748742;81;20924;-63
2021/11/22 05:14:16;;;;;;;13.72;12.33;;;;;;;10.81;77.92;98671.94;1758085;81;21045;-63
2021/11/22 05:16:44;;;;;;;11.65;10.53;;;;;;;10.83;77.86;98669.41;1748078;81;20932;-62
2021/11/22 05:19:11;;;;;;;9.78;8.88;;;;;;;10.87;77.70;98683.16;1761315;81;21072;-63
2021/11/22 05:21:38;;;;;;;7.97;7.00;;;;;;;10.90;77.08;98684.91;1757416;81;21143;-62
2021/11/22 05:24:05;;;;;;;7.15;6.55;;;;;;;10.79;76.94;98686.77;1743732;81;21501;-63
2021/11/22 05:26:32;;;;;;;6.33;5.70;;;;;;;10.68;76.90;98692.59;1751280;81;21006;-63
2021/11/22 05:28:59;;;;;;;7.03;6.17;;;;;;;10.68;77.00;98687.27;1760039;81;20943;-62
2021/11/22 05:31:26;;;;;;;6.22;5.60;;;;;;;10.72;76.94;98685.87;1760650;80;20935;-63
2021/11/22 05:33:53;;;;;;;7.00;6.30;;;;;;;10.79;76.52;98687.27;1752777;81;21132;-62
2021/11/22 05:36:19;;;;;;;6.25;5.72;;;;;;;10.84;76.21;98699.00;1745494;81;20884;-63
2021/11/22 05:38:46;;;;;;;6.92;6.22;;;;;;;10.84;76.13;98694.17;1758547;81;20998;-64
2021/11/22 05:41:13;;;;;;;6.33;5.72;;;;;;;10.87;76.10;98700.45;1753497;81;20947;-69
2021/11/22 05:43:41;;;;;;;5.60;5.10;;;;;;;10.89;76.11;98709.06;1760957;81;20883;-66
2021/11/22 05:46:09;;;;;;;5.87;5.33;;;;;;;10.90;76.00;98710.19;1743691;81;21865;-63
2021/11/22 05:48:36;;;;;;;5.90;5.22;;;;;;;10.96;75.93;98712.59;1756413;81;20974;-63
2021/11/22 05:51:04;;;;;;;4.55;3.95;;;;;;;10.97;75.83;98711.09;1748817;81;21026;-64
2021/11/22 05:53:34;;;;;;;73.05;45.00;;;;;;;11.04;75.62;98715.13;1756983;81;20911;-61
2021/11/22 05:56:03;;;;;;;13.35;11.30;;;;;;;11.03;75.54;98716.96;1760940;80;20888;-67
2021/11/22 05:58:31;;;;;;;9.05;7.65;;;;;;;10.94;75.64;98723.45;1770933;80;21143;-68
2021/11/22 06:01:00;;;;;;;6.75;5.28;;;;;;;10.94;75.78;98729.27;1745858;80;20927;-69
2021/11/22 06:03:27;;;;;;;5.47;4.97;;;;;;;11.00;75.58;98732.51;1764266;80;20978;-68
2021/11/22 06:05:55;;;;;;;5.70;5.20;;;;;;;10.96;75.62;98734.72;1763617;80;20994;-69
2021/11/22 06:08:21;;;;;;;5.28;4.65;;;;;;;10.94;75.64;98743.41;1754523;80;20935;-72
2021/11/22 06:10:49;;;;;;;6.97;5.67;;;;;;;10.83;75.84;98745.73;1748640;80;21879;-69
2021/11/22 06:13:17;;;;;;;7.67;6.85;;;;;;;10.67;76.14;98756.11;1753267;80;20924;-67
2021/11/22 06:15:46;;;;;;;12.05;10.30;;;;;;;10.61;76.61;98755.52;1758590;80;20990;-68
2021/11/22 06:18:14;;;;;;;7.92;7.12;;;;;;;10.69;76.69;98760.72;1760794;80;20946;-66
2021/11/22 06:20:40;;;;;;;6.40;4.97;;;;;;;10.73;76.64;98766.50;1753313;80;20899;-66
2021/11/22 06:23:07;;;;;;;6.92;5.85;;;;;;;10.78;76.52;98771.58;1766946;80;21167;-67
2021/11/22 06:25:35;;;;;;;7.50;5.35;;;;;;;10.91;76.04;98770.89;1757437;80;20931;-67
2021/11/22 06:28:02;;;;;;;6.22;5.62;;;;;;;10.88;75.95;98775.25;1770736;80;20927;-67
2021/11/22 06:30:29;;;;;;;7.08;5.55;;;;;;;10.84;78.38;98780.15;1755271;80;21512;-68
2021/11/22 06:32:57;;;;;;;8.38;6.58;;;;;;;10.83;76.83;98788.30;1759639;80;21509;-69
2021/11/22 06:35:23;;;;;;;7.65;6.65;;;;;;;10.77;76.78;98794.37;1754760;80;21532;-68
2021/11/22 06:37:54;;;;;;;7.10;6.40;;;;;;;10.79;76.47;98794.53;1760611;80;20879;-68
2021/11/22 06:40:19;;;;;;;6.75;6.15;;;;;;;10.60;77.05;98794.28;1759716;80;20954;-68
2021/11/22 06:42:45;;;;;;;5.90;5.40;;;;;;;10.46;77.72;98804.76;1759328;80;21509;-67
2021/11/22 06:45:13;;;;;;;4.70;4.30;;;;;;;10.30;78.06;98800.97;1757700;80;20973;-67
2021/11/22 06:47:40;;;;;;;5.58;4.75;;;;;;;10.26;78.40;98804.19;1754998;80;21429;-67
2021/11/22 06:50:08;;;;;;;4.78;4.35;;;;;;;10.12;78.96;98805.84;1763763;80;20879;-70
2021/11/22 06:52:34;;;;;;;4.10;3.70;;;;;;;10.09;79.00;98808.02;1759723;80;20905;-68
2021/11/22 06:55:01;;;;;;;3.35;3.10;;;;;;;10.05;81.66;98818.19;1746259;80;20911;-67
2021/11/22 06:57:28;;;;;;;3.47;3.20;;;;;;;9.99;85.15;98818.07;1765632;81;21568;-64
2021/11/22 06:59:55;;;;;;;3.27;2.98;;;;;;;10.04;82.70;98834.33;1756148;80;21956;-68
2021/11/22 07:02:24;;;;;;;2.17;1.98;;;;;;;9.99;81.37;98830.86;1761070;81;21081;-69
2021/11/22 07:04:50;;;;;;;2.05;1.55;;;;;;;;;;1759288;80;21300;-70
2021/11/22 07:07:16;;;;;;;1.52;1.30;;;;;;;9.84;79.10;98832.68;1751390;80;20932;-70
2021/11/22 07:09:43;;;;;;;2.35;1.37;;;;;;;9.84;78.66;98837.99;1754578;81;21012;-71
2021/11/22 07:12:10;;;;;;;2.65;1.45;;;;;;;9.91;78.05;98834.42;1756787;81;21800;-70
2021/11/22 07:14:39;;;;;;;1.30;1.20;;;;;;;9.88;77.84;98837.44;1756858;81;20879;-68
2021/11/22 07:17:06;;;;;;;1.67;1.50;;;;;;;9.89;78.05;98844.42;1750807;81;20951;-66
2021/11/22 07:19:34;;;;;;;2.25;1.70;;;;;;;9.86;77.95;98846.59;1759646;81;21604;-65
2021/11/22 07:22:04;;;;;;;1.45;1.32;;;;;;;9.90;77.20;98847.41;1761009;81;20888;-66
2021/11/22 07:24:29;;;;;;;2.10;1.82;;;;;;;9.88;76.89;98857.37;1759737;81;21158;-66
2021/11/22 07:26:55;;;;;;;2.22;2.02;;;;;;;9.92;76.60;98856.02;1753705;81;21515;-65
2021/11/22 07:29:22;;;;;;;2.00;1.80;;;;;;;9.97;76.21;98858.63;1759733;81;21329;-68
2021/11/22 07:31:49;;;;;;;1.85;1.75;;;;;;;10.06;75.59;98854.89;1761155;81;20997;-67
2021/11/22 07:34:16;;;;;;;1.60;1.50;;;;;;;10.07;75.39;98852.53;1751403;81;21469;-67
2021/11/22 07:36:43;;;;;;;1.92;1.50;;;;;;;9.93;74.89;98860.84;1717912;83;21201;-66
2021/11/22 07:39:09;;;;;;;1.70;1.60;;;;;;;9.94;74.64;98867.28;1690323;84;20912;-65
2021/11/22 07:41:36;;;;;;;1.92;1.82;;;;;;;9.91;74.25;98870.30;1763830;81;21003;-66
2021/11/22 07:44:04;;;;;;;2.85;2.30;;;;;;;9.81;74.53;98865.75;1762165;81;21568;-66
2021/11/22 07:46:31;;;;;;;11.38;3.17;;;;;;;9.85;74.72;98873.66;1756100;81;21520;-65
2021/11/22 07:48:57;;;;;;;10.03;3.58;;;;;;;9.82;74.50;98879.36;1748440;81;21149;-66
2021/11/22 07:51:24;;;;;;;11.25;3.15;;;;;;;9.81;74.63;98879.52;1766468;81;20987;-66
2021/11/22 07:53:51;;;;;;;9.03;3.10;;;;;;;9.71;74.62;98872.31;1761225;81;21021;-68
2021/11/22 07:56:17;;;;;;;6.15;3.25;;;;;;;9.68;74.96;98872.67;1751971;81;21495;-68
2021/11/22 07:58:44;;;;;;;6.35;2.72;;;;;;;9.64;75.29;98865.58;1744654;81;21002;-68
2021/11/22 08:01:10;;;;;;;6.53;2.67;;;;;;;9.41;75.81;98875.36;1753774;81;21153;-68
2021/11/22 08:03:37;;;;;;;3.27;2.30;;;;;;;9.19;76.35;98874.87;1758271;81;20887;-66
2021/11/22 08:06:04;;;;;;;5.97;2.40;;;;;;;9.16;76.84;98881.36;1757278;81;21047;-67
2021/11/22 08:08:34;;;;;;;3.20;2.30;;;;;;;9.29;76.90;98886.08;1756746;81;21537;-70
2021/11/22 08:13:39;;;;;;;2.02;1.77;;;;;;;9.39;76.85;98899.94;1762235;81;21151;-71
2021/11/22 08:16:07;;;;;;;2.65;2.08;;;;;;;9.33;76.09;98909.95;1745023;81;20951;-68
2021/11/22 08:18:36;;;;;;;1.67;1.50;;;;;;;9.17;76.48;98908.73;1754067;81;21504;-68
2021/11/22 08:21:03;;;;;;;1.50;1.40;;;;;;;9.15;76.60;98913.39;1752914;81;20912;-67
2021/11/22 08:23:31;;;;;;;1.82;1.72;;;;;;;9.02;75.74;98921.09;1758776;81;21672;-68
2021/11/22 08:25:59;;;;;;;1.70;1.32;;;;;;;8.88;76.52;98919.16;1755007;81;20988;-67
2021/11/22 08:28:25;;;;;;;3.52;1.60;;;;;;;8.92;76.49;98925.75;1758697;81;20982;-65
2021/11/22 08:30:52;;;;;;;1.30;1.00;;;;;;;9.02;76.19;98933.03;1753243;81;20915;-69
2021/11/22 08:33:19;;;;;;;2.10;1.07;;;;;;;9.08;74.54;98942.92;1753104;81;20947;-68
2021/11/22 08:35:46;;;;;;;0.75;0.75;;;;;;;9.09;73.13;98944.59;1758072;81;20935;-69
2021/11/22 08:38:15;;;;;;;1.40;1.10;;;;;;;9.01;72.65;98942.81;1760349;81;21119;-67
2021/11/22 08:40:42;;;;;;;3.42;1.67;;;;;;;8.95;72.93;98947.96;1757621;81;21556;-70
2021/11/22 08:43:13;;;;;;;1.98;1.80;;;;;;;9.03;73.01;98950.58;1757089;81;20940;-69
2021/11/22 08:45:40;;;;;;;1.72;1.62;;;;;;;9.04;72.80;98952.25;1759959;81;21461;-69
2021/11/22 08:48:08;;;;;;;2.15;1.57;;;;;;;9.02;72.81;98961.69;1757786;81;21089;-68
2021/11/22 08:50:35;;;;;;;2.75;1.67;;;;;;;9.08;72.55;98956.20;1760603;81;21776;-68
2021/11/22 08:53:03;;;;;;;2.80;1.47;;;;;;;9.03;72.19;98955.39;1753213;81;21035;-69
2021/11/22 08:55:30;;;;;;;1.62;1.40;;;;;;;9.04;72.55;98958.39;1768772;80;20997;-70
2021/11/22 08:57:57;;;;;;;3.70;2.80;;;;;;;9.11;72.41;98958.50;1766781;80;20954;-69
2021/11/22 09:00:28;;;;;;;3.62;2.02;;;;;;;9.24;72.25;98952.13;1755094;80;20990;-67
2021/11/22 09:02:54;;;;;;;1.37;1.25;;;;;;;9.40;71.76;98955.20;1757279;80;21153;-71
2021/11/22 09:05:21;;;;;;;2.00;1.37;;;;;;;9.41;71.59;98956.34;1772651;80;21485;-71
2021/11/22 09:07:47;;;;;;;9.70;1.70;;;;;;;9.40;70.88;98967.14;1767328;80;21043;-73
2021/11/22 09:10:15;;;;;;;1.55;1.27;;;;;;;9.39;70.79;98963.66;1764049;80;21034;-72
2021/11/22 09:12:42;;;;;;;1.42;1.30;;;;;;;9.47;70.42;98968.92;1766419;80;20908;-72
2021/11/22 09:15:08;;;;;;;1.42;1.17;;;;;;;9.45;69.50;98971.42;1764453;80;22611;-69
2021/11/22 09:17:35;;;;;;;2.27;1.20;;;;;;;9.38;69.37;98971.31;1753942;80;21540;-75
2021/11/22 09:20:02;;;;;;;1.98;1.40;;;;;;;9.37;69.34;98970.97;1753239;80;20892;-69
2021/11/22 09:22:29;;;;;;;1.27;1.10;;;;;;;9.35;69.15;98978.30;1755587;80;20977;-68
2021/11/22 09:24:57;;;;;;;1.10;1.00;;;;;;;9.41;68.95;98966.95;1762272;80;20943;-67
2021/11/22 09:27:23;;;;;;;2.15;1.07;;;;;;;9.48;68.76;98963.95;1768282;80;21148;-68
2021/11/22 09:29:50;;;;;;;1.20;1.10;;;;;;;9.42;68.54;98959.33;1756910;80;20926;-68
2021/11/22 09:32:17;;;;;;;1.30;0.90;;;;;;;9.41;68.51;98968.28;1754625;80;20974;-68
2021/11/22 09:34:43;;;;;;;1.22;0.98;;;;;;;9.50;68.45;98965.08;1754646;80;21516;-68
2021/11/22 09:37:10;;;;;;;10.23;2.58;;;;;;;9.60;68.13;98970.49;1765880;80;21007;-69
2021/11/22 09:39:37;;;;;;;5.47;2.30;;;;;;;9.63;67.71;98966.16;1764753;80;21207;-69
2021/11/22 09:42:04;;;;;;;6.22;1.80;;;;;;;9.56;67.72;98962.56;1757647;80;20911;-69
2021/11/22 09:44:32;;;;;;;7.47;2.05;;;;;;;9.58;67.22;98960.55;1759197;80;21186;-69
2021/11/22 09:46:58;;;;;;;6.28;1.90;;;;;;;9.57;66.68;98961.55;1724198;82;20983;-69
2021/11/22 09:49:25;;;;;;;11.53;2.47;;;;;;;9.50;66.90;98954.47;1720903;82;21050;-72
2021/11/22 09:51:51;;;;;;;6.87;2.90;;;;;;;9.48;67.17;98952.49;1711198;82;21947;-72
2021/11/22 09:54:19;;;;;;;8.10;3.08;;;;;;;9.54;67.27;98946.48;1730639;82;20987;-73
2021/11/22 09:56:49;;;;;;;5.40;2.30;;;;;;;9.59;66.86;98942.30;1719465;82;20948;-71
2021/11/22 09:59:14;;;;;;;5.62;2.83;;;;;;;9.65;66.68;98940.74;1745006;81;21003;-71
2021/11/22 10:01:41;;;;;;;4.40;2.50;;;;;;;9.65;66.47;98943.40;1743438;81;20923;-69
2021/11/22 10:04:11;;;;;;;5.10;2.22;;;;;;;9.69;66.52;98951.36;1763698;81;21508;-68
2021/11/22 10:06:59;;;;;;;3.85;2.40;;;;;;;9.78;66.30;98952.44;1759675;81;20943;-70
2021/11/22 10:09:42;;;;;;;4.03;2.20;;;;;;;9.86;65.00;98956.36;1756452;81;21082;-68
2021/11/22 10:12:21;;;;;;;2.92;2.12;;;;;;;10.00;65.11;98960.07;1756298;81;21489;-68
2021/11/22 10:14:57;;;;;;;2.45;2.22;;;;;;;10.10;64.04;98974.44;1755907;81;21003;-68
2021/11/22 10:17:38;;;;;;;5.40;2.15;;;;;;;10.05;63.40;98977.63;1762576;81;21810;-68
2021/11/22 10:20:15;;;;;;;4.67;2.87;;;;;;;10.09;62.59;98980.24;1757594;81;21065;-68
2021/11/22 10:23:03;;;;;;;5.40;2.30;;;;;;;10.10;62.55;98985.06;1748891;81;21058;-68
2021/11/22 10:25:37;;;;;;;5.10;2.77;;;;;;;10.14;62.72;98979.77;1762138;81;21533;-68
2021/11/22 10:28:12;;;;;;;5.03;2.12;;;;;;;10.26;61.58;98971.67;1755423;81;21018;-70
2021/11/22 10:30:43;;;;;;;6.67;2.25;;;;;;;10.21;61.92;98979.36;1742032;81;21143;-69
2021/11/22 10:33:12;;;;;;;4.03;2.50;;;;;;;10.33;62.08;98981.89;1753437;81;20947;-69
2021/11/22 10:35:40;;;;;;;6.05;2.30;;;;;;;10.40;62.20;98978.86;1744147;81;21046;-70
2021/11/22 10:38:17;;;;;;;3.20;2.22;;;;;;;10.60;61.73;98979.97;1745199;81;21058;-70
2021/11/22 10:40:56;;;;;;;3.85;2.10;;;;;;;10.67;60.96;98991.53;1691127;84;21015;-70
2021/11/22 10:43:23;;;;;;;5.20;2.02;;;;;;;10.73;60.86;98981.99;1763207;81;21093;-66
2021/11/22 10:45:51;;;;;;;4.83;1.80;;;;;;;10.63;59.58;98983.61;1756842;81;20933;-67
2021/11/22 10:48:26;;;;;;;3.22;1.52;;;;;;;10.58;60.61;98987.81;1757767;80;21099;-70
2021/11/22 10:51:19;;;;;;;1.50;1.40;;;;;;;10.63;59.93;98987.59;1745216;80;21010;-66
2021/11/22 10:53:50;;;;;;;3.25;1.27;;;;;;;10.58;59.59;98987.81;1756873;81;20936;-66
2021/11/22 10:56:25;;;;;;;2.05;1.30;;;;;;;10.48;60.23;98993.41;1751635;81;21542;-66
2021/11/22 10:59:06;;;;;;;1.62;1.05;;;;;;;10.54;60.07;98993.98;1743564;81;20915;-65
2021/11/22 11:01:48;;;;;;;1.98;1.15;;;;;;;10.61;59.52;98993.58;1757570;81;21009;-67
2021/11/22 11:04:24;;;;;;;3.58;1.15;;;;;;;10.47;58.75;98990.41;1759438;81;21591;-68
2021/11/22 11:06:58;;;;;;;2.08;1.05;;;;;;;10.33;58.86;98991.20;1754376;80;20935;-68
2021/11/22 11:09:41;;;;;;;5.62;1.37;;;;;;;10.27;59.20;98995.40;1759942;81;21166;-66
2021/11/22 11:12:20;;;;;;;4.75;1.52;;;;;;;10.32;58.96;99002.86;1748970;81;20986;-64
2021/11/22 11:14:51;;;;;;;3.17;1.32;;;;;;;10.23;59.02;98999.94;1752304;80;20867;-65
2021/11/22 11:17:31;;;;;;;2.40;1.20;;;;;;;10.18;59.04;98998.32;1757345;81;21006;-67
2021/11/22 11:20:00;;;;;;;4.25;1.70;;;;;;;10.07;58.76;98999.53;1750328;81;20971;-65
2021/11/22 11:22:28;;;;;;;6.80;2.62;;;;;;;9.94;59.14;99000.14;1755351;81;21141;-67
2021/11/22 11:24:59;;;;;;;4.20;1.82;;;;;;;9.86;59.11;98994.05;1753570;81;20987;-66
2021/11/22 11:27:26;;;;;;;3.20;2.20;;;;;;;9.73;59.33;99002.61;1763876;81;21015;-67
2021/11/22 11:29:53;;;;;;;2.67;2.17;;;;;;;9.61;59.57;99004.52;1748114;81;20959;-69
2021/11/22 11:32:20;;;;;;;5.08;2.35;;;;;;;9.65;60.04;99007.97;1748615;81;21007;-68
2021/11/22 11:34:51;;;;;;;4.50;2.30;;;;;;;9.75;60.08;99005.91;1751461;81;21167;-68
2021/11/22 11:38:00;;;;;;;4.00;1.80;;;;;;;9.90;59.32;99004.66;1748985;81;20954;-68